Ramsgate, United Kingdom
Current Conditions -  °F | °C
As of 3:50 PM on Tuesday 21 Oct 2014 (Local Time) from EGMD Reporting Station
Rain Showers Rain Showers  
Wind Chill: 14°   Ceiling: Unl
Heat Index: 14°   Visibility: 6mi
Dew Point:   Wind: 26mph
Humidity: 55%   Direction: 280°W
Pressure: 29.77"   Gusts: 38mph
Location:  51.33°N, 1.42°E
Report Text: EGMD 211450Z 28023G33KT 9999 VCSH SCT042 14/05 Q1008
Loading
Personal Weather Stations






























Interactive Weather Map
Tropical Storm Tracking
New forecast layout! Learn more

10-Day Weather Forecast

Advertisements
Track Severe Weather on mobile